Farewell Lake, AK

1:38 AM AKDT on August 22, 2014 (GMT -0800)
Tatalina | Change Station
CLOSE
Current Station
Airport
Location: Tatalina,
Elevation: 965 ft
Nearby Weather Stations

Elev 965 ft 62.89 °N, 155.98 °W | Updated 43 minutes ago

Clear
Clear
56 °F
Feels Like 56 °F
N
0
Wind Variable Wind from North

Today
High -- | Low -- °F
--% Chance of Precip.
Yesterday
High -- | Low -- °F
Precip. -- in
6:35 AM 9:57 PM
Waning Crescent, 9% visible
Pressure 30.21 in
Visibility 10.0 miles
Clouds Clear
Dew Point 43 °F
Humidity 62%
Rainfall 0.00 in
Snow Depth Not available.
UV 0 out of 12
Pollen Not available.
Air Quality Not available.
Flu Activity Not available.
METAR PATL 220855Z AUTO 00000KT 10SM CLR 13/06 A3021 RMK AO2 SLP229 T01310060 401800089 52005

More Conditions Fewer Conditions

Pressure 30.21 in
Visibility 10.0 miles
Clouds Clear
Dew Point 43 °F
Humidity 62%
Rainfall 0.00 in
Snow Depth Not available.
UV 0 out of 12
Pollen Not available.
Air Quality Not available.
Flu Activity Not available.
METAR PATL 220855Z AUTO 00000KT 10SM CLR 13/06 A3021 RMK AO2 SLP229 T01310060 401800089 52005

More Conditions Fewer Conditions

10-Day Weather Forecast

Almanac

Astronomy

Aug. 22, 2014 Rise Set
Actual Time 6:35 AM AKDT 9:57 PM AKDT
Civil Twilight 5:41 AM AKDT 10:50 PM AKDT
Nautical Twilight 4:20 AM AKDT 12:09 AM AKDT
Astronomical Twilight 2:49 AM AKDT 1:44 AM AKDT
Moon 3:44 AM AKDT 8:26 PM AKDT
Length of Visible Light 17h 09m
Length of Day
15h 21m
Tomorrow will be 6m 2s shorter.
Waning Crescent, 9% of the Moon is Illuminated
Today
Waning Crescent
Aug 25
New
Sep 2
First Quarter
Sep 8
Full
Sep 15
Last Quarter

Today's Extremes

State Highs State Lows

Community

WunderPhotos

Upload Photos

1,746,146 photos uploaded!

Nearby

Snow Depth

Station Depth Elevation
Susitna Valley High 2 in 375 ft
Point Mackenzie 1 in 200 ft
Indian Pass 2 in 2300 ft
Summit Creek 0 in 1400 ft
Turnagain Pass 2 in 1880 ft

Earthquake Activity

City Distance Mag. Time & Date
No recent earthquake activity has been reported nearby.
Minimum magnitude displayed is 2.5.

Coastal Water Temperatures

Place Temperature
No Stations Reporting

Nearby Weather Stations